sensor_id;sensor_type;location;lat;lon;timestamp;temperature;humidity
17483;DHT22;8858;52.308;20.994;2022-11-02T00:01:43;11.10;99.90
17483;DHT22;8858;52.308;20.994;2022-11-02T00:04:12;11.10;99.90
17483;DHT22;8858;52.308;20.994;2022-11-02T00:06:42;11.10;99.90
17483;DHT22;8858;52.308;20.994;2022-11-02T00:09:12;11.10;99.90
17483;DHT22;8858;52.308;20.994;2022-11-02T00:11:41;11.10;99.90
17483;DHT22;8858;52.308;20.994;2022-11-02T00:14:09;11.10;99.90
17483;DHT22;8858;52.308;20.994;2022-11-02T00:16:38;11.10;99.90
17483;DHT22;8858;52.308;20.994;2022-11-02T00:19:07;11.10;99.90
17483;DHT22;8858;52.308;20.994;2022-11-02T00:21:39;11.10;99.90
17483;DHT22;8858;52.308;20.994;2022-11-02T00:24:13;11.10;99.90
17483;DHT22;8858;52.308;20.994;2022-11-02T00:26:42;11.10;99.90
17483;DHT22;8858;52.308;20.994;2022-11-02T00:29:10;11.10;99.90
17483;DHT22;8858;52.308;20.994;2022-11-02T00:31:38;11.10;99.90
17483;DHT22;8858;52.308;20.994;2022-11-02T00:34:11;11.10;99.90
17483;DHT22;8858;52.308;20.994;2022-11-02T00:36:43;11.10;99.90
17483;DHT22;8858;52.308;20.994;2022-11-02T00:39:12;11.10;99.90
17483;DHT22;8858;52.308;20.994;2022-11-02T00:41:41;11.10;99.90
17483;DHT22;8858;52.308;20.994;2022-11-02T00:44:10;11.10;99.90
17483;DHT22;8858;52.308;20.994;2022-11-02T00:46:39;11.10;99.90
17483;DHT22;8858;52.308;20.994;2022-11-02T00:49:08;11.10;99.90
17483;DHT22;8858;52.308;20.994;2022-11-02T00:51:37;11.10;99.90
17483;DHT22;8858;52.308;20.994;2022-11-02T00:54:07;11.10;99.90
17483;DHT22;8858;52.308;20.994;2022-11-02T00:56:37;11.10;99.90
17483;DHT22;8858;52.308;20.994;2022-11-02T00:59:06;11.10;99.90
17483;DHT22;8858;52.308;20.994;2022-11-02T01:01:40;11.00;99.90
17483;DHT22;8858;52.308;20.994;2022-11-02T01:04:57;11.00;99.90
17483;DHT22;8858;52.308;20.994;2022-11-02T01:07:41;11.10;99.90
17483;DHT22;8858;52.308;20.994;2022-11-02T01:10:11;11.10;99.90
17483;DHT22;8858;52.308;20.994;2022-11-02T01:13:05;11.10;99.90
17483;DHT22;8858;52.308;20.994;2022-11-02T01:15:35;11.10;99.90
17483;DHT22;8858;52.308;20.994;2022-11-02T01:18:10;11.10;99.90
17483;DHT22;8858;52.308;20.994;2022-11-02T01:20:46;11.10;99.90
17483;DHT22;8858;52.308;20.994;2022-11-02T01:23:18;11.20;99.90
17483;DHT22;8858;52.308;20.994;2022-11-02T01:25:47;11.20;99.90
17483;DHT22;8858;52.308;20.994;2022-11-02T01:28:41;11.20;99.90
17483;DHT22;8858;52.308;20.994;2022-11-02T01:31:13;11.20;99.90
17483;DHT22;8858;52.308;20.994;2022-11-02T01:33:43;11.20;99.90
17483;DHT22;8858;52.308;20.994;2022-11-02T01:36:24;11.20;99.90
17483;DHT22;8858;52.308;20.994;2022-11-02T01:38:54;11.20;99.90
17483;DHT22;8858;52.308;20.994;2022-11-02T01:41:28;11.20;99.90
17483;DHT22;8858;52.308;20.994;2022-11-02T01:44:46;11.20;99.90
17483;DHT22;8858;52.308;20.994;2022-11-02T01:47:44;11.30;99.90
17483;DHT22;8858;52.308;20.994;2022-11-02T01:53:35;11.30;99.90
17483;DHT22;8858;52.308;20.994;2022-11-02T01:56:05;11.30;99.90
17483;DHT22;8858;52.308;20.994;2022-11-02T01:58:35;11.30;99.90
17483;DHT22;8858;52.308;20.994;2022-11-02T02:01:05;11.30;99.90
17483;DHT22;8858;52.308;20.994;2022-11-02T02:03:39;11.40;99.90
17483;DHT22;8858;52.308;20.994;2022-11-02T02:06:12;11.40;99.90
17483;DHT22;8858;52.308;20.994;2022-11-02T02:08:44;11.40;99.90
17483;DHT22;8858;52.308;20.994;2022-11-02T02:11:26;11.50;99.90
17483;DHT22;8858;52.308;20.994;2022-11-02T02:14:43;11.50;99.90
17483;DHT22;8858;52.308;20.994;2022-11-02T02:17:31;11.60;99.90
17483;DHT22;8858;52.308;20.994;2022-11-02T02:20:05;11.60;99.90
17483;DHT22;8858;52.308;20.994;2022-11-02T02:23:15;11.60;99.90
17483;DHT22;8858;52.308;20.994;2022-11-02T02:30:11;11.60;99.90
17483;DHT22;8858;52.308;20.994;2022-11-02T02:33:13;11.60;99.90
17483;DHT22;8858;52.308;20.994;2022-11-02T02:35:51;11.60;99.90
17483;DHT22;8858;52.308;20.994;2022-11-02T02:38:26;11.60;99.90
17483;DHT22;8858;52.308;20.994;2022-11-02T02:41:28;11.60;99.90
17483;DHT22;8858;52.308;20.994;2022-11-02T02:44:02;11.60;99.90
17483;DHT22;8858;52.308;20.994;2022-11-02T02:46:39;11.60;99.90
17483;DHT22;8858;52.308;20.994;2022-11-02T02:49:14;11.60;99.90
17483;DHT22;8858;52.308;20.994;2022-11-02T02:51:45;11.50;99.90
17483;DHT22;8858;52.308;20.994;2022-11-02T02:54:22;11.50;99.90
17483;DHT22;8858;52.308;20.994;2022-11-02T02:57:05;11.40;99.90
17483;DHT22;8858;52.308;20.994;2022-11-02T02:59:36;11.40;99.90
17483;DHT22;8858;52.308;20.994;2022-11-02T03:02:15;11.40;99.90
17483;DHT22;8858;52.308;20.994;2022-11-02T03:04:44;11.40;99.90
17483;DHT22;8858;52.308;20.994;2022-11-02T03:07:19;11.40;99.90
17483;DHT22;8858;52.308;20.994;2022-11-02T03:10:02;11.40;99.90
17483;DHT22;8858;52.308;20.994;2022-11-02T03:12:45;11.40;99.90
17483;DHT22;8858;52.308;20.994;2022-11-02T03:15:24;11.40;99.90
17483;DHT22;8858;52.308;20.994;2022-11-02T03:18:01;11.40;99.90
17483;DHT22;8858;52.308;20.994;2022-11-02T03:20:42;11.40;99.90
17483;DHT22;8858;52.308;20.994;2022-11-02T03:23:51;11.40;99.90
17483;DHT22;8858;52.308;20.994;2022-11-02T03:26:23;11.40;99.90
17483;DHT22;8858;52.308;20.994;2022-11-02T03:29:02;11.50;99.90
17483;DHT22;8858;52.308;20.994;2022-11-02T03:31:39;11.40;99.90
17483;DHT22;8858;52.308;20.994;2022-11-02T03:34:18;11.50;99.90
17483;DHT22;8858;52.308;20.994;2022-11-02T03:36:59;11.50;99.90
17483;DHT22;8858;52.308;20.994;2022-11-02T03:39:34;11.50;99.90
17483;DHT22;8858;52.308;20.994;2022-11-02T03:42:54;11.50;99.90
17483;DHT22;8858;52.308;20.994;2022-11-02T03:45:34;11.50;99.90
17483;DHT22;8858;52.308;20.994;2022-11-02T03:48:09;11.50;99.90
17483;DHT22;8858;52.308;20.994;2022-11-02T03:50:44;11.50;99.90
17483;DHT22;8858;52.308;20.994;2022-11-02T03:53:18;11.50;99.90
17483;DHT22;8858;52.308;20.994;2022-11-02T03:55:52;11.60;99.90
17483;DHT22;8858;52.308;20.994;2022-11-02T03:58:21;11.60;99.90
17483;DHT22;8858;52.308;20.994;2022-11-02T04:00:51;11.60;99.90
17483;DHT22;8858;52.308;20.994;2022-11-02T04:03:24;11.60;99.90
17483;DHT22;8858;52.308;20.994;2022-11-02T04:05:54;11.60;99.90
17483;DHT22;8858;52.308;20.994;2022-11-02T04:08:33;11.60;99.90
17483;DHT22;8858;52.308;20.994;2022-11-02T04:11:06;11.60;99.90
17483;DHT22;8858;52.308;20.994;2022-11-02T04:14:06;11.60;99.90
17483;DHT22;8858;52.308;20.994;2022-11-02T04:17:01;11.60;99.90
17483;DHT22;8858;52.308;20.994;2022-11-02T04:19:50;11.60;99.90
17483;DHT22;8858;52.308;20.994;2022-11-02T04:22:22;11.70;99.90
17483;DHT22;8858;52.308;20.994;2022-11-02T04:25:17;11.70;99.90
17483;DHT22;8858;52.308;20.994;2022-11-02T04:28:07;11.70;99.90
17483;DHT22;8858;52.308;20.994;2022-11-02T04:30:47;11.70;99.90
17483;DHT22;8858;52.308;20.994;2022-11-02T04:33:21;11.70;99.90
17483;DHT22;8858;52.308;20.994;2022-11-02T04:36:08;11.70;99.90
17483;DHT22;8858;52.308;20.994;2022-11-02T04:38:39;11.80;99.90
17483;DHT22;8858;52.308;20.994;2022-11-02T04:41:19;11.80;99.90
17483;DHT22;8858;52.308;20.994;2022-11-02T04:44:33;11.80;99.90
17483;DHT22;8858;52.308;20.994;2022-11-02T04:47:05;11.80;99.90
17483;DHT22;8858;52.308;20.994;2022-11-02T04:49:34;11.80;99.90
17483;DHT22;8858;52.308;20.994;2022-11-02T04:52:06;11.80;99.90
17483;DHT22;8858;52.308;20.994;2022-11-02T04:54:43;11.80;99.90
17483;DHT22;8858;52.308;20.994;2022-11-02T04:57:13;11.80;99.90
17483;DHT22;8858;52.308;20.994;2022-11-02T04:59:42;11.90;99.90
17483;DHT22;8858;52.308;20.994;2022-11-02T05:02:12;11.90;99.90
17483;DHT22;8858;52.308;20.994;2022-11-02T05:04:42;11.90;99.90
17483;DHT22;8858;52.308;20.994;2022-11-02T05:07:11;12.00;99.90
17483;DHT22;8858;52.308;20.994;2022-11-02T05:09:40;12.00;99.90
17483;DHT22;8858;52.308;20.994;2022-11-02T05:12:13;12.00;99.90
17483;DHT22;8858;52.308;20.994;2022-11-02T05:14:42;12.00;99.90
17483;DHT22;8858;52.308;20.994;2022-11-02T05:17:10;12.00;99.90
17483;DHT22;8858;52.308;20.994;2022-11-02T05:19:39;12.00;99.90
17483;DHT22;8858;52.308;20.994;2022-11-02T05:22:08;12.00;99.90
17483;DHT22;8858;52.308;20.994;2022-11-02T05:24:39;12.00;99.90
17483;DHT22;8858;52.308;20.994;2022-11-02T05:27:08;12.00;99.90
17483;DHT22;8858;52.308;20.994;2022-11-02T05:29:39;12.00;99.90
17483;DHT22;8858;52.308;20.994;2022-11-02T05:32:07;12.00;99.90
17483;DHT22;8858;52.308;20.994;2022-11-02T05:34:37;12.10;99.90
17483;DHT22;8858;52.308;20.994;2022-11-02T05:37:08;12.00;99.90
17483;DHT22;8858;52.308;20.994;2022-11-02T05:39:37;12.00;99.90
17483;DHT22;8858;52.308;20.994;2022-11-02T05:42:05;12.10;99.90
17483;DHT22;8858;52.308;20.994;2022-11-02T05:44:35;12.10;99.90
17483;DHT22;8858;52.308;20.994;2022-11-02T05:47:05;12.10;99.90
17483;DHT22;8858;52.308;20.994;2022-11-02T05:49:34;12.10;99.90
17483;DHT22;8858;52.308;20.994;2022-11-02T05:52:04;12.10;99.90
17483;DHT22;8858;52.308;20.994;2022-11-02T05:54:32;12.10;99.90
17483;DHT22;8858;52.308;20.994;2022-11-02T05:57:00;12.10;99.90
17483;DHT22;8858;52.308;20.994;2022-11-02T05:59:29;12.10;99.90
17483;DHT22;8858;52.308;20.994;2022-11-02T06:02:23;12.10;99.90
17483;DHT22;8858;52.308;20.994;2022-11-02T06:04:52;12.20;99.90
17483;DHT22;8858;52.308;20.994;2022-11-02T06:07:20;12.20;99.90
17483;DHT22;8858;52.308;20.994;2022-11-02T06:09:48;12.20;99.90
17483;DHT22;8858;52.308;20.994;2022-11-02T06:12:23;12.20;99.90
17483;DHT22;8858;52.308;20.994;2022-11-02T06:14:52;12.20;99.90
17483;DHT22;8858;52.308;20.994;2022-11-02T06:17:20;12.20;99.90
17483;DHT22;8858;52.308;20.994;2022-11-02T06:19:51;12.20;99.90
17483;DHT22;8858;52.308;20.994;2022-11-02T06:22:19;12.20;99.90
17483;DHT22;8858;52.308;20.994;2022-11-02T06:24:50;12.30;99.90
17483;DHT22;8858;52.308;20.994;2022-11-02T06:27:19;12.30;99.90
17483;DHT22;8858;52.308;20.994;2022-11-02T06:29:48;12.30;99.90
17483;DHT22;8858;52.308;20.994;2022-11-02T06:32:27;12.30;99.90
17483;DHT22;8858;52.308;20.994;2022-11-02T06:35:02;12.40;99.90
17483;DHT22;8858;52.308;20.994;2022-11-02T06:37:33;12.40;99.90
17483;DHT22;8858;52.308;20.994;2022-11-02T06:40:03;12.50;99.90
17483;DHT22;8858;52.308;20.994;2022-11-02T06:42:31;12.40;99.90
17483;DHT22;8858;52.308;20.994;2022-11-02T06:45:10;12.40;99.90
17483;DHT22;8858;52.308;20.994;2022-11-02T06:47:39;12.40;99.90
17483;DHT22;8858;52.308;20.994;2022-11-02T06:50:09;12.50;99.90
17483;DHT22;8858;52.308;20.994;2022-11-02T06:52:42;12.50;99.90
17483;DHT22;8858;52.308;20.994;2022-11-02T06:55:11;12.50;99.90
17483;DHT22;8858;52.308;20.994;2022-11-02T06:57:42;12.50;99.90
17483;DHT22;8858;52.308;20.994;2022-11-02T07:00:13;12.60;99.90
17483;DHT22;8858;52.308;20.994;2022-11-02T07:02:58;12.60;99.90
17483;DHT22;8858;52.308;20.994;2022-11-02T07:05:29;12.60;99.90
17483;DHT22;8858;52.308;20.994;2022-11-02T07:07:58;12.60;99.90
17483;DHT22;8858;52.308;20.994;2022-11-02T07:10:27;12.70;99.90
17483;DHT22;8858;52.308;20.994;2022-11-02T07:12:57;12.70;99.90
17483;DHT22;8858;52.308;20.994;2022-11-02T07:16:40;12.70;99.90
17483;DHT22;8858;52.308;20.994;2022-11-02T07:19:09;12.80;99.90
17483;DHT22;8858;52.308;20.994;2022-11-02T07:21:39;12.70;99.90
17483;DHT22;8858;52.308;20.994;2022-11-02T07:24:14;12.80;99.90
17483;DHT22;8858;52.308;20.994;2022-11-02T07:26:42;12.70;99.90
17483;DHT22;8858;52.308;20.994;2022-11-02T07:29:11;12.70;99.90
17483;DHT22;8858;52.308;20.994;2022-11-02T07:31:40;12.70;99.90
17483;DHT22;8858;52.308;20.994;2022-11-02T07:34:08;12.70;99.90
17483;DHT22;8858;52.308;20.994;2022-11-02T07:36:44;12.70;99.90
17483;DHT22;8858;52.308;20.994;2022-11-02T07:39:13;12.80;99.90
17483;DHT22;8858;52.308;20.994;2022-11-02T07:41:41;12.80;99.90
17483;DHT22;8858;52.308;20.994;2022-11-02T07:44:17;12.80;99.90
17483;DHT22;8858;52.308;20.994;2022-11-02T07:46:54;12.90;99.90
17483;DHT22;8858;52.308;20.994;2022-11-02T07:49:22;12.90;99.90
17483;DHT22;8858;52.308;20.994;2022-11-02T07:51:54;12.90;99.90
17483;DHT22;8858;52.308;20.994;2022-11-02T07:54:23;13.00;99.90
17483;DHT22;8858;52.308;20.994;2022-11-02T07:56:52;13.00;99.90
17483;DHT22;8858;52.308;20.994;2022-11-02T07:59:27;13.10;99.90
17483;DHT22;8858;52.308;20.994;2022-11-02T08:01:55;13.10;99.90
17483;DHT22;8858;52.308;20.994;2022-11-02T08:04:24;13.20;99.90
17483;DHT22;8858;52.308;20.994;2022-11-02T08:06:53;13.20;99.90
17483;DHT22;8858;52.308;20.994;2022-11-02T08:09:21;13.30;99.90
17483;DHT22;8858;52.308;20.994;2022-11-02T08:12:14;13.30;99.90
17483;DHT22;8858;52.308;20.994;2022-11-02T08:14:42;13.40;99.90
17483;DHT22;8858;52.308;20.994;2022-11-02T08:17:12;13.50;99.90
17483;DHT22;8858;52.308;20.994;2022-11-02T08:19:40;13.50;99.90
17483;DHT22;8858;52.308;20.994;2022-11-02T08:22:13;13.50;99.90
17483;DHT22;8858;52.308;20.994;2022-11-02T08:24:41;13.60;99.90
17483;DHT22;8858;52.308;20.994;2022-11-02T08:27:11;13.60;99.90
17483;DHT22;8858;52.308;20.994;2022-11-02T08:29:39;13.60;99.90
17483;DHT22;8858;52.308;20.994;2022-11-02T08:32:08;13.60;99.90
17483;DHT22;8858;52.308;20.994;2022-11-02T08:34:37;13.50;99.90
17483;DHT22;8858;52.308;20.994;2022-11-02T08:37:06;13.60;99.90
17483;DHT22;8858;52.308;20.994;2022-11-02T08:39:37;13.60;99.90
17483;DHT22;8858;52.308;20.994;2022-11-02T08:42:10;13.60;99.90
17483;DHT22;8858;52.308;20.994;2022-11-02T08:44:40;13.60;99.90
17483;DHT22;8858;52.308;20.994;2022-11-02T08:47:14;13.60;99.90
17483;DHT22;8858;52.308;20.994;2022-11-02T08:49:44;13.70;99.90
17483;DHT22;8858;52.308;20.994;2022-11-02T08:52:13;13.70;99.90
17483;DHT22;8858;52.308;20.994;2022-11-02T08:54:43;13.80;99.90
17483;DHT22;8858;52.308;20.994;2022-11-02T08:57:12;13.90;99.90
17483;DHT22;8858;52.308;20.994;2022-11-02T08:59:42;13.90;99.90
17483;DHT22;8858;52.308;20.994;2022-11-02T09:02:11;13.90;99.90
17483;DHT22;8858;52.308;20.994;2022-11-02T09:04:40;13.90;99.90
17483;DHT22;8858;52.308;20.994;2022-11-02T09:07:08;13.90;99.90
17483;DHT22;8858;52.308;20.994;2022-11-02T09:09:36;13.90;99.90
17483;DHT22;8858;52.308;20.994;2022-11-02T09:12:13;13.80;99.90
17483;DHT22;8858;52.308;20.994;2022-11-02T09:14:41;13.90;99.90
17483;DHT22;8858;52.308;20.994;2022-11-02T09:17:11;13.90;99.90
17483;DHT22;8858;52.308;20.994;2022-11-02T09:19:39;13.80;99.90
17483;DHT22;8858;52.308;20.994;2022-11-02T09:22:07;13.80;99.90
17483;DHT22;8858;52.308;20.994;2022-11-02T09:24:39;13.80;99.90
17483;DHT22;8858;52.308;20.994;2022-11-02T09:27:07;13.70;99.90
17483;DHT22;8858;52.308;20.994;2022-11-02T09:29:37;13.80;99.90
17483;DHT22;8858;52.308;20.994;2022-11-02T09:32:05;13.70;99.90
17483;DHT22;8858;52.308;20.994;2022-11-02T09:34:33;13.80;99.90
17483;DHT22;8858;52.308;20.994;2022-11-02T09:37:06;13.80;99.90
17483;DHT22;8858;52.308;20.994;2022-11-02T09:39:35;13.80;99.90
17483;DHT22;8858;52.308;20.994;2022-11-02T09:42:09;13.80;99.90
17483;DHT22;8858;52.308;20.994;2022-11-02T09:44:47;13.80;99.90
17483;DHT22;8858;52.308;20.994;2022-11-02T09:47:24;13.80;99.90
17483;DHT22;8858;52.308;20.994;2022-11-02T09:50:17;13.80;99.90
17483;DHT22;8858;52.308;20.994;2022-11-02T09:52:52;13.80;99.90
17483;DHT22;8858;52.308;20.994;2022-11-02T09:55:30;13.80;99.90
17483;DHT22;8858;52.308;20.994;2022-11-02T09:58:02;13.70;99.90
17483;DHT22;8858;52.308;20.994;2022-11-02T10:00:39;13.70;99.90
17483;DHT22;8858;52.308;20.994;2022-11-02T10:03:19;13.70;99.90
17483;DHT22;8858;52.308;20.994;2022-11-02T10:05:55;13.60;99.90
17483;DHT22;8858;52.308;20.994;2022-11-02T10:08:33;13.70;99.90
17483;DHT22;8858;52.308;20.994;2022-11-02T10:11:23;13.60;99.90
17483;DHT22;8858;52.308;20.994;2022-11-02T10:14:02;13.60;99.90
17483;DHT22;8858;52.308;20.994;2022-11-02T10:16:35;13.70;99.90
17483;DHT22;8858;52.308;20.994;2022-11-02T10:19:08;13.60;99.90
17483;DHT22;8858;52.308;20.994;2022-11-02T10:21:42;13.60;99.90
17483;DHT22;8858;52.308;20.994;2022-11-02T10:24:22;13.60;99.90
17483;DHT22;8858;52.308;20.994;2022-11-02T10:26:59;13.60;99.90
17483;DHT22;8858;52.308;20.994;2022-11-02T10:29:42;13.60;99.90
17483;DHT22;8858;52.308;20.994;2022-11-02T10:32:16;13.70;99.90
17483;DHT22;8858;52.308;20.994;2022-11-02T10:34:45;13.70;99.90
17483;DHT22;8858;52.308;20.994;2022-11-02T10:37:40;13.70;99.90
17483;DHT22;8858;52.308;20.994;2022-11-02T10:40:21;13.70;99.90
17483;DHT22;8858;52.308;20.994;2022-11-02T10:43:04;13.70;99.90
17483;DHT22;8858;52.308;20.994;2022-11-02T10:45:48;13.70;99.90
17483;DHT22;8858;52.308;20.994;2022-11-02T10:49:04;13.80;99.90
17483;DHT22;8858;52.308;20.994;2022-11-02T10:51:36;13.80;99.90
17483;DHT22;8858;52.308;20.994;2022-11-02T10:54:10;13.80;99.90
17483;DHT22;8858;52.308;20.994;2022-11-02T10:56:45;13.80;99.90
17483;DHT22;8858;52.308;20.994;2022-11-02T10:59:16;13.90;99.90
17483;DHT22;8858;52.308;20.994;2022-11-02T11:02:02;13.90;99.90
17483;DHT22;8858;52.308;20.994;2022-11-02T11:04:35;13.90;99.90
17483;DHT22;8858;52.308;20.994;2022-11-02T11:07:05;14.00;99.90
17483;DHT22;8858;52.308;20.994;2022-11-02T11:09:47;14.00;99.90
17483;DHT22;8858;52.308;20.994;2022-11-02T11:12:19;14.00;99.90
17483;DHT22;8858;52.308;20.994;2022-11-02T11:14:51;14.00;99.90
17483;DHT22;8858;52.308;20.994;2022-11-02T11:17:40;14.00;99.90
17483;DHT22;8858;52.308;20.994;2022-11-02T11:20:34;13.90;99.90
17483;DHT22;8858;52.308;20.994;2022-11-02T11:23:15;13.90;99.90
17483;DHT22;8858;52.308;20.994;2022-11-02T11:25:54;14.00;99.90
17483;DHT22;8858;52.308;20.994;2022-11-02T11:28:25;14.00;99.90
17483;DHT22;8858;52.308;20.994;2022-11-02T11:31:11;14.00;99.90
17483;DHT22;8858;52.308;20.994;2022-11-02T11:33:49;14.10;99.90
17483;DHT22;8858;52.308;20.994;2022-11-02T11:36:25;14.10;99.90
17483;DHT22;8858;52.308;20.994;2022-11-02T11:38:56;14.10;99.90
17483;DHT22;8858;52.308;20.994;2022-11-02T11:41:26;14.20;99.90
17483;DHT22;8858;52.308;20.994;2022-11-02T11:44:02;14.20;99.90
17483;DHT22;8858;52.308;20.994;2022-11-02T11:46:42;14.30;99.90
17483;DHT22;8858;52.308;20.994;2022-11-02T11:49:20;14.30;99.90
17483;DHT22;8858;52.308;20.994;2022-11-02T11:52:16;14.30;99.90
17483;DHT22;8858;52.308;20.994;2022-11-02T11:54:52;14.40;99.90
17483;DHT22;8858;52.308;20.994;2022-11-02T11:57:24;14.40;99.90
17483;DHT22;8858;52.308;20.994;2022-11-02T11:59:54;14.50;99.90
17483;DHT22;8858;52.308;20.994;2022-11-02T12:02:33;14.50;99.90
17483;DHT22;8858;52.308;20.994;2022-11-02T12:05:13;14.60;99.90
17483;DHT22;8858;52.308;20.994;2022-11-02T12:11:17;14.70;99.90
17483;DHT22;8858;52.308;20.994;2022-11-02T12:14:01;14.70;99.90
17483;DHT22;8858;52.308;20.994;2022-11-02T12:16:53;14.60;99.90
17483;DHT22;8858;52.308;20.994;2022-11-02T12:19:31;14.70;99.90
17483;DHT22;8858;52.308;20.994;2022-11-02T12:22:12;14.80;99.90
17483;DHT22;8858;52.308;20.994;2022-11-02T12:24:58;14.80;99.90
17483;DHT22;8858;52.308;20.994;2022-11-02T12:27:38;14.90;99.90
17483;DHT22;8858;52.308;20.994;2022-11-02T12:30:14;15.00;99.90
17483;DHT22;8858;52.308;20.994;2022-11-02T12:33:05;15.00;99.90
17483;DHT22;8858;52.308;20.994;2022-11-02T12:35:49;15.20;99.90
17483;DHT22;8858;52.308;20.994;2022-11-02T12:41:44;15.50;99.90
17483;DHT22;8858;52.308;20.994;2022-11-02T12:44:45;15.50;99.90
17483;DHT22;8858;52.308;20.994;2022-11-02T12:47:52;15.50;99.90
17483;DHT22;8858;52.308;20.994;2022-11-02T12:53:29;15.40;99.90
17483;DHT22;8858;52.308;20.994;2022-11-02T12:56:07;15.30;99.90
17483;DHT22;8858;52.308;20.994;2022-11-02T12:58:38;15.40;99.90
17483;DHT22;8858;52.308;20.994;2022-11-02T13:01:16;15.40;99.90
17483;DHT22;8858;52.308;20.994;2022-11-02T13:03:53;15.40;99.90
17483;DHT22;8858;52.308;20.994;2022-11-02T13:06:28;15.40;99.90
17483;DHT22;8858;52.308;20.994;2022-11-02T13:09:06;15.50;99.90
17483;DHT22;8858;52.308;20.994;2022-11-02T13:11:38;15.60;99.90
17483;DHT22;8858;52.308;20.994;2022-11-02T13:14:12;15.50;99.90
17483;DHT22;8858;52.308;20.994;2022-11-02T13:16:48;15.40;99.90
17483;DHT22;8858;52.308;20.994;2022-11-02T13:19:19;15.30;99.90
17483;DHT22;8858;52.308;20.994;2022-11-02T13:21:51;15.40;99.90
17483;DHT22;8858;52.308;20.994;2022-11-02T13:24:33;15.40;99.90
17483;DHT22;8858;52.308;20.994;2022-11-02T13:27:15;15.40;99.90
17483;DHT22;8858;52.308;20.994;2022-11-02T13:30:08;15.30;99.90
17483;DHT22;8858;52.308;20.994;2022-11-02T13:32:43;15.20;99.90
17483;DHT22;8858;52.308;20.994;2022-11-02T13:35:17;15.00;99.90
17483;DHT22;8858;52.308;20.994;2022-11-02T13:37:51;15.00;99.90
17483;DHT22;8858;52.308;20.994;2022-11-02T13:40:24;14.90;99.90
17483;DHT22;8858;52.308;20.994;2022-11-02T13:46:15;14.70;99.90
17483;DHT22;8858;52.308;20.994;2022-11-02T13:48:53;14.70;99.90
17483;DHT22;8858;52.308;20.994;2022-11-02T13:51:32;14.70;99.90
17483;DHT22;8858;52.308;20.994;2022-11-02T13:54:12;14.70;99.90
17483;DHT22;8858;52.308;20.994;2022-11-02T13:56:43;14.70;99.90
17483;DHT22;8858;52.308;20.994;2022-11-02T13:59:19;14.70;99.90
17483;DHT22;8858;52.308;20.994;2022-11-02T14:01:51;14.60;99.90
17483;DHT22;8858;52.308;20.994;2022-11-02T14:04:22;14.60;99.90
17483;DHT22;8858;52.308;20.994;2022-11-02T14:06:56;14.60;99.90
17483;DHT22;8858;52.308;20.994;2022-11-02T14:09:33;14.60;99.90
17483;DHT22;8858;52.308;20.994;2022-11-02T14:18:29;14.50;99.90
17483;DHT22;8858;52.308;20.994;2022-11-02T14:24:51;14.20;99.90
17483;DHT22;8858;52.308;20.994;2022-11-02T14:27:28;14.00;99.90
17483;DHT22;8858;52.308;20.994;2022-11-02T14:29:59;14.00;99.90
17483;DHT22;8858;52.308;20.994;2022-11-02T14:32:38;13.90;99.90
17483;DHT22;8858;52.308;20.994;2022-11-02T14:35:23;13.80;99.90
17483;DHT22;8858;52.308;20.994;2022-11-02T14:41:11;13.60;99.90
17483;DHT22;8858;52.308;20.994;2022-11-02T14:44:01;13.60;99.90
17483;DHT22;8858;52.308;20.994;2022-11-02T14:46:45;13.50;99.90
17483;DHT22;8858;52.308;20.994;2022-11-02T14:49:21;13.40;99.90
17483;DHT22;8858;52.308;20.994;2022-11-02T14:51:56;13.40;99.90
17483;DHT22;8858;52.308;20.994;2022-11-02T14:54:33;13.40;99.90
17483;DHT22;8858;52.308;20.994;2022-11-02T14:57:06;13.40;99.90
17483;DHT22;8858;52.308;20.994;2022-11-02T14:59:47;13.40;99.90
17483;DHT22;8858;52.308;20.994;2022-11-02T15:02:20;13.40;99.90
17483;DHT22;8858;52.308;20.994;2022-11-02T15:04:54;13.30;99.90
17483;DHT22;8858;52.308;20.994;2022-11-02T15:07:33;13.30;99.90
17483;DHT22;8858;52.308;20.994;2022-11-02T15:10:08;13.30;99.90
17483;DHT22;8858;52.308;20.994;2022-11-02T15:16:37;13.20;99.90
17483;DHT22;8858;52.308;20.994;2022-11-02T15:19:35;13.10;99.90
17483;DHT22;8858;52.308;20.994;2022-11-02T15:22:34;13.10;99.90
17483;DHT22;8858;52.308;20.994;2022-11-02T15:25:19;13.10;99.90
17483;DHT22;8858;52.308;20.994;2022-11-02T15:27:49;13.00;99.90
17483;DHT22;8858;52.308;20.994;2022-11-02T15:30:20;13.00;99.90
17483;DHT22;8858;52.308;20.994;2022-11-02T15:32:57;13.00;99.90
17483;DHT22;8858;52.308;20.994;2022-11-02T15:35:30;13.00;99.90
17483;DHT22;8858;52.308;20.994;2022-11-02T15:38:00;12.90;99.90
17483;DHT22;8858;52.308;20.994;2022-11-02T15:40:52;12.90;99.90
17483;DHT22;8858;52.308;20.994;2022-11-02T15:43:50;12.90;99.90
17483;DHT22;8858;52.308;20.994;2022-11-02T15:46:33;12.80;99.90
17483;DHT22;8858;52.308;20.994;2022-11-02T15:49:13;12.80;99.90
17483;DHT22;8858;52.308;20.994;2022-11-02T15:51:55;12.80;99.90
17483;DHT22;8858;52.308;20.994;2022-11-02T15:54:44;12.70;99.90
17483;DHT22;8858;52.308;20.994;2022-11-02T15:57:31;12.70;99.90
17483;DHT22;8858;52.308;20.994;2022-11-02T16:00:13;12.70;99.90
17483;DHT22;8858;52.308;20.994;2022-11-02T16:02:47;12.70;99.90
17483;DHT22;8858;52.308;20.994;2022-11-02T16:05:19;12.60;99.90
17483;DHT22;8858;52.308;20.994;2022-11-02T16:07:50;12.50;99.90
17483;DHT22;8858;52.308;20.994;2022-11-02T16:10:47;12.50;99.90
17483;DHT22;8858;52.308;20.994;2022-11-02T16:13:22;12.50;99.90
17483;DHT22;8858;52.308;20.994;2022-11-02T16:16:16;12.40;99.90
17483;DHT22;8858;52.308;20.994;2022-11-02T16:18:48;12.30;99.90
17483;DHT22;8858;52.308;20.994;2022-11-02T16:21:19;12.30;99.90
17483;DHT22;8858;52.308;20.994;2022-11-02T16:23:50;12.30;99.90
17483;DHT22;8858;52.308;20.994;2022-11-02T16:26:21;12.30;99.90
17483;DHT22;8858;52.308;20.994;2022-11-02T16:28:56;12.20;99.90
17483;DHT22;8858;52.308;20.994;2022-11-02T16:31:27;12.20;99.90
17483;DHT22;8858;52.308;20.994;2022-11-02T16:34:02;12.10;99.90
17483;DHT22;8858;52.308;20.994;2022-11-02T16:36:35;12.10;99.90
17483;DHT22;8858;52.308;20.994;2022-11-02T16:39:14;12.10;99.90
17483;DHT22;8858;52.308;20.994;2022-11-02T16:41:47;12.10;99.90
17483;DHT22;8858;52.308;20.994;2022-11-02T16:44:41;12.10;99.90
17483;DHT22;8858;52.308;20.994;2022-11-02T16:47:17;12.00;99.90
17483;DHT22;8858;52.308;20.994;2022-11-02T16:50:01;12.00;99.90
17483;DHT22;8858;52.308;20.994;2022-11-02T16:52:31;12.00;99.90
17483;DHT22;8858;52.308;20.994;2022-11-02T16:55:02;12.00;99.90
17483;DHT22;8858;52.308;20.994;2022-11-02T16:57:50;12.00;99.90
17483;DHT22;8858;52.308;20.994;2022-11-02T17:00:20;11.90;99.90
17483;DHT22;8858;52.308;20.994;2022-11-02T17:02:48;11.90;99.90
17483;DHT22;8858;52.308;20.994;2022-11-02T17:05:19;11.90;99.90